Time;durP1;ratioP1;P1;durP2;ratioP2;P2;SDS_P1;SDS_P2;PMS_P1;PMS_P2;Temp;Humidity;BMP_temperature;BMP_pressure;BME280_temperature;BME280_humidity;BME280_pressure;Samples;Min_cycle;Max_cycle;Signal;HPM_P1;HPM_P2
2024/03/17 00:01:06;;;;;;;9.45;5.00;;;;;;;18.78;42.86;102243.38;4966738;28;20023;-74
2024/03/17 00:03:31;;;;;;;7.63;4.15;;;;;;;18.77;42.88;102249.63;4967189;28;20022;-74
2024/03/17 00:05:59;;;;;;;7.75;4.60;;;;;;;18.78;42.72;102247.84;4967919;28;20027;-75
2024/03/17 00:08:25;;;;;;;7.60;4.18;;;;;;;18.74;42.63;102235.75;4967831;28;20027;-74
2024/03/17 00:10:56;;;;;;;8.77;4.53;;;;;;;18.46;42.52;102189.94;4967287;28;20042;-74
2024/03/17 00:13:23;;;;;;;6.90;3.85;;;;;;;18.66;42.79;102223.03;4968390;28;20065;-75
2024/03/17 00:15:49;;;;;;;7.65;4.18;;;;;;;18.59;42.55;102209.34;4967633;28;20519;-76
2024/03/17 00:18:14;;;;;;;8.88;3.90;;;;;;;18.73;42.55;102232.25;4968721;28;20030;-74
2024/03/17 00:20:40;;;;;;;7.45;3.80;;;;;;;18.61;42.44;102203.97;4965064;28;20045;-76
2024/03/17 00:23:09;;;;;;;6.25;3.60;;;;;;;18.69;42.44;102225.47;4964843;28;20375;-74
2024/03/17 00:25:35;;;;;;;6.47;4.00;;;;;;;18.66;42.40;102220.41;4966844;28;20026;-74
2024/03/17 00:28:01;;;;;;;7.50;4.07;;;;;;;18.66;42.31;102229.16;4967202;28;21570;-76
2024/03/17 00:30:26;;;;;;;6.80;3.70;;;;;;;18.65;42.41;102221.34;4968274;28;20030;-74
2024/03/17 00:32:52;;;;;;;5.93;3.40;;;;;;;18.66;42.50;102229.16;4967053;28;20475;-74
2024/03/17 00:35:20;;;;;;;6.80;3.53;;;;;;;18.66;42.30;102231.81;4967667;28;20046;-76
2024/03/17 00:37:49;;;;;;;7.82;3.58;;;;;;;18.60;42.21;102215.50;4967709;28;20069;-74
2024/03/17 00:40:18;;;;;;;6.43;3.40;;;;;;;18.61;42.09;102225.97;4967323;28;20058;-75
2024/03/17 00:42:44;;;;;;;7.10;3.63;;;;;;;18.55;42.12;102204.34;4967382;28;20391;-73
2024/03/17 00:45:11;;;;;;;5.93;3.15;;;;;;;18.52;42.16;102208.03;4965417;28;20462;-76
2024/03/17 00:47:36;;;;;;;6.15;3.33;;;;;;;18.56;42.07;102220.09;4967329;28;20029;-76
2024/03/17 00:50:03;;;;;;;6.20;2.92;;;;;;;18.58;42.46;102217.38;4967272;28;20027;-76
2024/03/17 00:52:29;;;;;;;6.47;3.30;;;;;;;18.56;42.28;102213.97;4966825;28;20523;-74
2024/03/17 00:54:54;;;;;;;6.88;3.17;;;;;;;18.47;42.20;102195.13;4966794;28;20167;-73
2024/03/17 00:57:19;;;;;;;6.50;3.15;;;;;;;18.45;42.23;102197.03;4966806;28;20058;-73
2024/03/17 00:59:45;;;;;;;6.17;2.90;;;;;;;18.42;42.16;102186.66;4967424;28;20452;-74
2024/03/17 01:02:16;;;;;;;6.72;3.58;;;;;;;18.53;42.23;102201.81;4966025;28;20268;-72
2024/03/17 01:04:43;;;;;;;6.07;2.80;;;;;;;18.51;42.28;102200.22;4966260;28;20090;-73
2024/03/17 01:07:09;;;;;;;5.43;2.90;;;;;;;18.54;42.00;102213.22;4967000;28;20456;-75
2024/03/17 01:09:34;;;;;;;7.20;3.25;;;;;;;18.54;41.96;102211.44;4967051;28;20105;-75
2024/03/17 01:12:00;;;;;;;6.63;3.30;;;;;;;18.43;42.42;102190.97;4967223;28;20030;-74
2024/03/17 01:14:25;;;;;;;6.32;2.67;;;;;;;18.39;41.87;102178.91;4967271;28;20026;-75
2024/03/17 01:16:51;;;;;;;6.82;3.35;;;;;;;18.53;41.98;102199.16;4967189;28;20027;-75
2024/03/17 01:19:17;;;;;;;7.10;3.35;;;;;;;18.50;41.85;102183.53;4966849;28;20026;-75
2024/03/17 01:21:42;;;;;;;6.45;3.00;;;;;;;18.46;42.21;102182.03;4966556;28;20027;-73
2024/03/17 01:24:07;;;;;;;5.35;2.83;;;;;;;18.42;42.09;102172.59;4966612;28;20102;-75
2024/03/17 01:26:33;;;;;;;5.75;3.00;;;;;;;18.46;41.80;102182.03;4965843;28;20035;-74
2024/03/17 01:28:58;;;;;;;5.68;3.00;;;;;;;18.36;42.01;102160.63;4967115;28;20113;-74
2024/03/17 01:31:24;;;;;;;5.75;3.08;;;;;;;18.43;42.18;102171.66;4966716;28;20085;-74
2024/03/17 01:33:50;;;;;;;6.00;2.80;;;;;;;18.48;42.17;102180.13;4966893;28;20110;-76
2024/03/17 01:36:15;;;;;;;6.90;3.15;;;;;;;18.43;42.10;102175.13;4966354;28;20118;-73
2024/03/17 01:38:40;;;;;;;5.53;2.88;;;;;;;18.44;42.01;102165.44;4966483;28;20031;-74
2024/03/17 01:41:06;;;;;;;5.55;2.75;;;;;;;18.44;41.98;102165.44;4966351;28;20026;-73
2024/03/17 01:43:31;;;;;;;5.55;2.75;;;;;;;18.34;42.08;102148.44;4966953;28;20043;-74
2024/03/17 01:45:58;;;;;;;5.88;2.70;;;;;;;18.33;41.82;102150.25;4969133;28;20041;-75
2024/03/17 01:48:25;;;;;;;5.18;2.70;;;;;;;18.39;42.22;102157.81;4970590;28;20022;-73
2024/03/17 01:50:55;;;;;;;4.90;2.63;;;;;;;18.40;41.87;102156.00;4970165;28;20383;-74
2024/03/17 01:53:21;;;;;;;5.32;2.85;;;;;;;18.38;41.83;102156.09;4970478;28;20515;-74
2024/03/17 01:55:47;;;;;;;4.93;2.45;;;;;;;18.29;41.84;102143.47;4969694;28;20046;-73
2024/03/17 01:58:13;;;;;;;5.95;2.88;;;;;;;18.26;42.07;102138.38;4970188;28;20034;-75
2024/03/17 02:00:39;;;;;;;6.72;2.97;;;;;;;18.36;41.81;102159.75;4969733;28;20066;-74
2024/03/17 02:03:08;;;;;;;5.38;2.72;;;;;;;18.40;41.82;102166.56;4968846;28;20487;-75
2024/03/17 02:05:37;;;;;;;5.05;2.83;;;;;;;18.32;41.94;102151.19;4969722;28;20129;-75
2024/03/17 02:08:09;;;;;;;5.40;2.75;;;;;;;18.37;41.92;102156.19;4969689;28;20031;-75
2024/03/17 02:10:34;;;;;;;5.88;2.83;;;;;;;18.24;41.86;102135.81;4969869;28;20126;-73
2024/03/17 02:13:01;;;;;;;5.50;2.80;;;;;;;18.24;41.67;102129.69;4969549;28;20110;-75
2024/03/17 02:15:26;;;;;;;5.40;2.88;;;;;;;18.28;41.73;102141.78;4968969;28;20372;-74
2024/03/17 02:17:52;;;;;;;5.88;2.88;;;;;;;18.30;41.69;102140.72;4969882;28;20033;-75
2024/03/17 02:20:17;;;;;;;5.15;2.53;;;;;;;18.20;41.95;102125.53;4969331;28;20073;-74
2024/03/17 02:22:43;;;;;;;5.72;2.70;;;;;;;18.21;41.78;102122.81;4968022;28;20031;-74
2024/03/17 02:25:08;;;;;;;5.40;2.97;;;;;;;18.30;41.90;102142.53;4967228;28;20026;-75
2024/03/17 02:27:37;;;;;;;5.10;2.85;;;;;;;18.26;41.88;102138.38;4968675;28;20042;-74
2024/03/17 02:30:07;;;;;;;6.85;3.05;;;;;;;18.30;41.84;102139.88;4969894;28;20027;-74
2024/03/17 02:32:33;;;;;;;6.00;3.40;;;;;;;18.18;41.84;102114.25;4969954;28;20034;-73
2024/03/17 02:34:59;;;;;;;5.35;2.70;;;;;;;18.29;41.83;102133.78;4970618;28;20031;-74
2024/03/17 02:37:25;;;;;;;5.45;2.70;;;;;;;18.31;41.94;102136.31;4970992;28;20448;-74
2024/03/17 02:39:50;;;;;;;5.43;2.90;;;;;;;18.16;42.05;102108.22;4972674;28;20027;-73
2024/03/17 02:42:15;;;;;;;6.72;2.95;;;;;;;18.24;42.01;102116.50;4973515;28;20390;-73
2024/03/17 02:44:40;;;;;;;4.97;2.88;;;;;;;18.18;42.08;102109.81;4973059;28;20034;-74
2024/03/17 02:47:08;;;;;;;4.85;2.45;;;;;;;18.28;41.97;102116.22;4971444;28;20042;-74
2024/03/17 02:49:39;;;;;;;5.20;3.05;;;;;;;18.13;41.99;102096.94;4971068;28;20452;-74
2024/03/17 02:52:09;;;;;;;4.93;2.80;;;;;;;18.24;41.92;102116.50;4972019;28;20035;-74
2024/03/17 02:54:35;;;;;;;5.00;2.80;;;;;;;18.14;41.90;102100.41;4973439;28;20026;-74
2024/03/17 02:57:01;;;;;;;5.75;2.90;;;;;;;18.12;42.02;102095.22;4971743;28;20088;-74
2024/03/17 02:59:26;;;;;;;7.03;3.00;;;;;;;18.22;41.95;102118.41;4976920;28;20035;-74
2024/03/17 03:01:52;;;;;;;5.68;2.88;;;;;;;18.12;42.02;102104.94;4977314;28;20609;-75
2024/03/17 03:04:17;;;;;;;6.32;2.70;;;;;;;18.10;41.86;102107.66;4976814;28;20030;-74
2024/03/17 03:06:43;;;;;;;4.72;2.50;;;;;;;18.17;41.91;102129.25;4977288;28;20066;-74
2024/03/17 03:09:13;;;;;;;5.22;2.90;;;;;;;18.22;42.04;102121.03;4976891;28;20022;-75
2024/03/17 03:11:41;;;;;;;6.45;3.05;;;;;;;18.17;41.93;102120.47;4976297;28;20027;-75
2024/03/17 03:14:07;;;;;;;4.93;2.45;;;;;;;18.19;41.94;102122.06;4976286;28;20038;-75
2024/03/17 03:16:33;;;;;;;5.07;2.60;;;;;;;18.09;42.14;102105.97;4975863;28;20082;-75
2024/03/17 03:18:58;;;;;;;5.00;2.75;;;;;;;18.16;42.14;102114.34;4975783;28;20026;-74
2024/03/17 03:21:24;;;;;;;4.78;2.55;;;;;;;18.09;42.20;102098.03;4974195;28;20049;-75
2024/03/17 03:23:49;;;;;;;5.40;3.08;;;;;;;18.11;42.03;102097.94;4969202;28;20038;-74
2024/03/17 03:26:14;;;;;;;4.80;2.80;;;;;;;18.09;42.22;102091.94;4968473;28;20113;-75
2024/03/17 03:28:40;;;;;;;4.90;2.70;;;;;;;18.07;42.23;102083.25;4968897;28;20391;-74
2024/03/17 03:31:05;;;;;;;4.55;2.42;;;;;;;18.18;42.26;102098.41;4967156;28;20083;-75
2024/03/17 03:33:31;;;;;;;6.30;2.58;;;;;;;18.17;42.09;102102.00;4969049;28;20054;-74
2024/03/17 03:35:56;;;;;;;5.25;2.90;;;;;;;18.15;41.90;102106.50;4968655;28;20451;-74
2024/03/17 03:38:22;;;;;;;4.45;2.70;;;;;;;18.08;42.09;102095.50;4969189;28;20035;-73
2024/03/17 03:40:48;;;;;;;4.57;2.50;;;;;;;18.20;42.15;102110.59;4968601;28;20031;-74
2024/03/17 03:43:14;;;;;;;4.85;2.67;;;;;;;18.07;42.22;102085.88;4968720;28;20045;-74
2024/03/17 03:45:40;;;;;;;5.05;2.65;;;;;;;18.20;42.08;102104.44;4968769;28;20066;-74
2024/03/17 03:48:06;;;;;;;5.18;2.75;;;;;;;18.14;42.20;102084.56;4968821;28;20121;-74
2024/03/17 03:50:31;;;;;;;5.90;2.75;;;;;;;18.14;42.10;102089.84;4966670;28;20066;-74
2024/03/17 03:52:57;;;;;;;4.50;2.58;;;;;;;18.14;41.94;102066.09;4968298;28;20031;-74
2024/03/17 03:55:23;;;;;;;5.85;2.50;;;;;;;18.10;42.16;102056.66;4968151;28;20470;-74
2024/03/17 03:57:52;;;;;;;4.63;2.30;;;;;;;18.05;42.04;102043.75;4968931;28;20082;-75
2024/03/17 04:00:21;;;;;;;5.03;2.63;;;;;;;18.04;42.07;102043.84;4968071;28;20042;-75
2024/03/17 04:02:47;;;;;;;5.57;2.72;;;;;;;18.08;41.97;102048.00;4967324;28;20038;-74
2024/03/17 04:05:13;;;;;;;4.80;2.60;;;;;;;18.12;42.16;102057.44;4967926;28;20122;-74
2024/03/17 04:07:39;;;;;;;5.32;2.38;;;;;;;18.12;42.05;102060.91;4967638;28;20109;-74
2024/03/17 04:10:05;;;;;;;5.88;2.55;;;;;;;18.10;42.12;102051.41;4967871;28;20065;-74
2024/03/17 04:12:31;;;;;;;4.22;2.50;;;;;;;18.02;42.15;102032.56;4967138;28;20030;-75
2024/03/17 04:14:57;;;;;;;4.65;2.40;;;;;;;18.00;42.00;102030.00;4968209;28;20038;-74
2024/03/17 04:17:23;;;;;;;4.85;2.60;;;;;;;17.81;42.03;102003.91;4968526;28;20463;-75
2024/03/17 04:19:49;;;;;;;4.72;2.67;;;;;;;18.13;42.00;102057.34;4967543;28;20082;-75
2024/03/17 04:22:16;;;;;;;4.43;2.70;;;;;;;18.13;42.00;102051.19;4967742;28;20109;-75
2024/03/17 04:24:42;;;;;;;4.43;2.45;;;;;;;18.06;41.73;102040.19;4968092;28;20089;-74
2024/03/17 04:27:08;;;;;;;5.03;2.95;;;;;;;18.05;41.96;102033.22;4967303;28;20054;-73
2024/03/17 04:29:33;;;;;;;4.30;2.45;;;;;;;18.12;41.90;102047.72;4967496;28;20371;-73
2024/03/17 04:32:00;;;;;;;4.15;2.47;;;;;;;18.05;41.69;102032.38;4967995;28;20034;-74
2024/03/17 04:34:26;;;;;;;4.53;2.78;;;;;;;17.97;41.60;102022.28;4968137;28;20033;-74
2024/03/17 04:36:51;;;;;;;5.13;2.45;;;;;;;18.10;41.80;102047.00;4967267;28;20097;-74
2024/03/17 04:39:17;;;;;;;4.95;2.80;;;;;;;17.95;41.45;102019.75;4968085;28;20408;-74
2024/03/17 04:41:44;;;;;;;4.78;2.78;;;;;;;17.87;41.68;102002.69;4967750;28;20049;-73
2024/03/17 04:44:09;;;;;;;4.72;2.58;;;;;;;18.08;41.65;102040.94;4967462;28;20077;-75
2024/03/17 04:46:35;;;;;;;4.53;2.60;;;;;;;18.01;41.74;102033.50;4967007;28;20038;-75
2024/03/17 04:49:01;;;;;;;5.00;2.60;;;;;;;18.04;41.81;102044.72;4967109;28;20050;-73
2024/03/17 04:51:26;;;;;;;4.68;2.67;;;;;;;17.97;41.89;102026.72;4967208;28;20023;-73
2024/03/17 04:53:51;;;;;;;4.10;2.47;;;;;;;17.99;41.83;102032.75;4966934;28;20026;-74
2024/03/17 04:56:17;;;;;;;4.25;2.45;;;;;;;17.98;41.46;102029.28;4966856;28;20027;-73
2024/03/17 04:58:43;;;;;;;5.80;2.53;;;;;;;18.03;41.76;102037.75;4966295;28;20027;-73
2024/03/17 05:01:09;;;;;;;4.72;2.60;;;;;;;17.95;41.79;102025.03;4967361;28;20030;-73
2024/03/17 05:03:35;;;;;;;4.40;2.50;;;;;;;18.04;41.61;102036.81;4966366;28;20034;-75
2024/03/17 05:06:04;;;;;;;4.78;2.70;;;;;;;18.02;41.79;102036.03;4967451;28;20081;-74
2024/03/17 05:08:30;;;;;;;5.00;3.10;;;;;;;18.04;41.50;102042.09;4967385;28;20031;-74
2024/03/17 05:11:00;;;;;;;5.00;2.70;;;;;;;17.94;41.61;102026.00;4966291;28;20058;-74
2024/03/17 05:13:28;;;;;;;4.75;2.50;;;;;;;17.97;42.02;102032.84;4967139;28;20436;-75
2024/03/17 05:15:54;;;;;;;6.18;2.65;;;;;;;18.04;41.76;102038.56;4967463;28;20037;-74
2024/03/17 05:18:20;;;;;;;5.22;2.60;;;;;;;17.97;41.62;102030.19;4966272;28;20027;-74
2024/03/17 05:20:47;;;;;;;4.28;2.40;;;;;;;17.98;41.71;102029.28;4970809;28;20022;-74
2024/03/17 05:23:13;;;;;;;4.00;2.30;;;;;;;17.87;41.92;102008.81;4970708;28;20035;-75
2024/03/17 05:25:39;;;;;;;4.57;2.53;;;;;;;17.94;41.69;102017.22;4970311;28;20094;-73
2024/03/17 05:28:04;;;;;;;5.78;2.65;;;;;;;17.91;41.65;102009.47;4970429;28;20498;-74
2024/03/17 05:30:30;;;;;;;4.38;2.40;;;;;;;18.01;41.70;102025.59;4971082;28;20030;-74
2024/03/17 05:32:56;;;;;;;4.90;2.72;;;;;;;17.92;41.48;102016.47;4970965;28;20024;-73
2024/03/17 05:35:21;;;;;;;4.10;2.28;;;;;;;17.87;41.68;102007.97;4970934;28;20035;-74
2024/03/17 05:37:48;;;;;;;5.10;2.40;;;;;;;17.93;41.69;102023.44;4970063;28;20030;-75
2024/03/17 05:40:14;;;;;;;4.72;2.50;;;;;;;17.86;41.53;102004.47;4970765;28;20068;-75
2024/03/17 05:42:43;;;;;;;3.95;2.42;;;;;;;17.87;41.58;101994.78;4970708;28;20027;-73
2024/03/17 05:45:10;;;;;;;4.05;2.20;;;;;;;17.94;41.36;102004.88;4970670;28;20462;-74
2024/03/17 05:47:37;;;;;;;4.13;2.33;;;;;;;17.84;41.63;101989.69;4970784;28;20089;-73
2024/03/17 05:50:02;;;;;;;4.47;2.55;;;;;;;17.92;41.37;102005.91;4969449;28;20386;-74
2024/03/17 05:52:28;;;;;;;4.82;2.42;;;;;;;17.84;41.69;101993.16;4970732;28;20110;-73
2024/03/17 05:54:53;;;;;;;4.53;2.70;;;;;;;17.84;41.44;102006.34;4969061;28;20033;-73
2024/03/17 05:57:21;;;;;;;4.97;2.40;;;;;;;17.94;41.61;102014.56;4970219;28;20358;-72
2024/03/17 05:59:47;;;;;;;5.18;2.88;;;;;;;17.92;41.60;102019.94;4968942;28;20026;-74
2024/03/17 06:02:12;;;;;;;4.80;2.63;;;;;;;17.82;41.57;102002.13;4968486;28;20046;-74
2024/03/17 06:04:38;;;;;;;4.47;2.25;;;;;;;17.84;41.66;102010.78;4970377;28;20038;-72
2024/03/17 06:07:04;;;;;;;4.93;2.30;;;;;;;17.89;41.92;102022.75;4970388;28;20038;-72
2024/03/17 06:09:29;;;;;;;4.57;2.28;;;;;;;17.80;42.39;102009.28;4970601;28;20057;-73
2024/03/17 06:11:54;;;;;;;3.92;2.00;;;;;;;17.93;42.33;102032.19;4969840;28;20105;-73
2024/03/17 06:14:19;;;;;;;4.45;2.10;;;;;;;17.97;42.36;102046.03;4970344;28;20038;-73
2024/03/17 06:16:46;;;;;;;4.20;2.10;;;;;;;17.90;42.37;102027.09;4970515;28;20460;-74
2024/03/17 06:19:11;;;;;;;3.70;1.90;;;;;;;17.93;42.39;102028.72;4970587;28;20038;-72
2024/03/17 06:21:38;;;;;;;4.05;2.28;;;;;;;17.98;42.35;102025.78;4970163;28;20600;-74
2024/03/17 06:24:06;;;;;;;4.20;2.10;;;;;;;17.99;42.49;102028.34;4969970;28;20031;-73
2024/03/17 06:26:33;;;;;;;3.83;1.85;;;;;;;18.06;42.70;102034.91;4968671;28;20042;-74
2024/03/17 06:28:59;;;;;;;4.13;1.90;;;;;;;18.05;42.66;102025.28;4969383;28;20030;-73
2024/03/17 06:31:24;;;;;;;3.63;1.90;;;;;;;18.14;42.43;102042.34;4968610;28;20370;-74
2024/03/17 06:33:50;;;;;;;3.85;1.98;;;;;;;18.04;42.59;102023.63;4969812;28;20023;-73
2024/03/17 06:36:15;;;;;;;3.33;1.50;;;;;;;18.19;42.38;102042.06;4969600;28;20031;-73
2024/03/17 06:38:41;;;;;;;3.75;2.03;;;;;;;18.16;42.35;102032.53;4969857;28;20147;-75
2024/03/17 06:41:06;;;;;;;3.95;1.73;;;;;;;18.15;42.26;102030.00;4969336;28;20046;-72
2024/03/17 06:43:32;;;;;;;3.30;1.55;;;;;;;18.28;42.42;102044.13;4970119;28;20034;-73
2024/03/17 06:45:59;;;;;;;3.17;1.52;;;;;;;18.19;42.13;102027.09;4969560;28;20034;-75
2024/03/17 06:48:25;;;;;;;3.13;1.60;;;;;;;18.28;42.44;102039.69;4969449;28;20081;-74
2024/03/17 06:50:52;;;;;;;3.80;1.90;;;;;;;18.32;42.26;102042.97;4969500;28;20057;-74
2024/03/17 06:53:18;;;;;;;4.38;1.77;;;;;;;18.23;42.02;102018.03;4969494;28;20098;-75
2024/03/17 06:55:46;;;;;;;3.67;1.73;;;;;;;18.31;42.37;102028.13;4969027;28;20043;-74
2024/03/17 06:58:11;;;;;;;3.47;1.70;;;;;;;18.40;42.27;102043.34;4969288;28;20035;-73
2024/03/17 07:00:36;;;;;;;3.22;1.55;;;;;;;18.29;41.98;102028.22;4969380;28;20498;-74
2024/03/17 07:03:02;;;;;;;3.75;1.80;;;;;;;18.38;42.34;102034.69;4968806;28;20028;-73
2024/03/17 07:05:29;;;;;;;3.60;1.70;;;;;;;18.37;42.28;102032.97;4968900;28;20122;-74
2024/03/17 07:07:55;;;;;;;2.95;1.42;;;;;;;18.40;42.47;102034.59;4969507;28;20033;-75
2024/03/17 07:10:20;;;;;;;3.22;1.58;;;;;;;18.32;42.53;102008.69;4969189;28;20034;-74
2024/03/17 07:12:45;;;;;;;3.00;1.30;;;;;;;18.36;42.27;102010.19;4968903;28;20080;-74
2024/03/17 07:15:11;;;;;;;3.90;1.90;;;;;;;18.31;42.45;102004.38;4966507;28;20573;-73
2024/03/17 07:17:36;;;;;;;3.35;1.38;;;;;;;18.40;42.33;102002.91;4969206;28;20068;-73
2024/03/17 07:20:03;;;;;;;3.20;1.38;;;;;;;18.32;42.30;101992.84;4967206;28;20042;-74
2024/03/17 07:22:28;;;;;;;3.53;1.67;;;;;;;18.33;42.17;101999.00;4969187;28;20030;-73
2024/03/17 07:25:01;;;;;;;2.47;1.30;;;;;;;18.33;42.17;102002.47;4967764;28;20629;-74
2024/03/17 07:27:29;;;;;;;2.92;1.50;;;;;;;18.40;42.21;102003.75;4965779;28;20211;-72
2024/03/17 07:29:54;;;;;;;3.40;1.75;;;;;;;18.31;42.11;101994.66;4967303;28;20154;-73
2024/03/17 07:32:19;;;;;;;3.20;1.42;;;;;;;18.31;42.30;101993.81;4969158;28;20109;-76
2024/03/17 07:34:45;;;;;;;2.70;1.42;;;;;;;18.47;42.26;102020.06;4969458;28;20030;-74
2024/03/17 07:37:10;;;;;;;3.85;1.55;;;;;;;18.44;42.35;102022.91;4968614;28;20027;-77
2024/03/17 07:39:35;;;;;;;2.45;1.30;;;;;;;18.31;42.25;101991.16;4968567;28;20106;-77
2024/03/17 07:42:02;;;;;;;3.22;1.88;;;;;;;18.34;42.04;101998.88;4967674;28;20081;-75
2024/03/17 07:44:28;;;;;;;4.32;1.40;;;;;;;18.41;42.18;102010.72;4982510;28;20034;-76
2024/03/17 07:46:54;;;;;;;3.50;1.55;;;;;;;18.46;42.55;102021.00;4967037;28;20491;-76
2024/03/17 07:49:20;;;;;;;2.80;1.30;;;;;;;18.44;42.63;102017.63;4969094;28;20031;-76
2024/03/17 07:51:46;;;;;;;2.78;1.30;;;;;;;18.34;42.85;101993.63;4967399;28;20344;-65
2024/03/17 07:54:13;;;;;;;2.88;1.30;;;;;;;18.48;42.97;102012.03;4968677;28;20031;-75
2024/03/17 07:56:38;;;;;;;3.25;1.50;;;;;;;18.48;42.88;102009.41;4968516;28;20039;-76
2024/03/17 07:59:11;;;;;;;3.72;1.50;;;;;;;18.40;43.04;101981.78;4966895;28;20481;-75
2024/03/17 08:01:36;;;;;;;4.05;1.40;;;;;;;18.40;42.92;101982.63;4967469;28;20023;-76
2024/03/17 08:04:02;;;;;;;2.72;1.30;;;;;;;18.45;43.13;101993.78;4968480;28;20073;-75
2024/03/17 08:06:27;;;;;;;3.72;1.45;;;;;;;18.48;43.11;101997.97;4966319;28;20030;-76
2024/03/17 08:08:54;;;;;;;3.45;1.50;;;;;;;18.47;42.93;101988.38;4968155;28;20515;-76
2024/03/17 08:11:22;;;;;;;4.30;1.77;;;;;;;18.51;43.31;101996.94;4968136;28;20069;-74
2024/03/17 08:13:47;;;;;;;3.28;1.65;;;;;;;18.51;43.22;101992.50;4966243;28;20374;-75
2024/03/17 08:16:14;;;;;;;3.47;1.60;;;;;;;18.48;43.16;102001.50;4966385;28;20110;-74
2024/03/17 08:18:40;;;;;;;4.78;1.73;;;;;;;18.53;43.20;102003.81;4967497;28;20348;-76
2024/03/17 08:21:06;;;;;;;4.38;1.60;;;;;;;18.54;43.35;102008.16;4967518;28;20497;-75
2024/03/17 08:23:32;;;;;;;4.13;2.05;;;;;;;18.56;43.49;102002.78;4966260;28;20030;-75
2024/03/17 08:25:59;;;;;;;4.95;1.90;;;;;;;18.53;43.21;102001.16;4967218;28;20472;-75
2024/03/17 08:28:26;;;;;;;4.45;1.70;;;;;;;18.58;43.66;102008.78;4967425;28;20057;-75
2024/03/17 08:30:56;;;;;;;3.67;1.55;;;;;;;18.59;43.44;102013.97;4967262;28;20030;-75
2024/03/17 08:33:24;;;;;;;4.28;1.60;;;;;;;18.56;43.74;102006.25;4966347;28;20551;-75
2024/03/17 08:36:03;;;;;;;2.83;1.45;;;;;;;18.49;43.56;101997.03;4967005;28;20027;-76
2024/03/17 08:38:31;;;;;;;3.63;1.65;;;;;;;18.47;43.86;101991.03;4967025;28;20019;-75
2024/03/17 08:40:57;;;;;;;5.70;1.60;;;;;;;18.56;43.91;102002.78;4967242;28;20038;-76
2024/03/17 08:43:23;;;;;;;4.18;1.52;;;;;;;18.58;43.69;102009.66;4966998;28;20039;-76
2024/03/17 08:46:01;;;;;;;4.22;1.33;;;;;;;18.51;43.81;101989.03;4965461;28;20584;-76
2024/03/17 08:48:28;;;;;;;4.63;1.77;;;;;;;18.63;43.76;102014.66;4965756;28;20132;-75
2024/03/17 08:50:54;;;;;;;3.13;1.40;;;;;;;18.49;43.87;101995.25;4966989;28;20027;-75
2024/03/17 08:53:20;;;;;;;3.33;1.50;;;;;;;18.55;43.88;101993.16;4966956;28;20371;-76
2024/03/17 08:55:46;;;;;;;4.47;1.63;;;;;;;18.59;43.93;101999.94;4967894;28;20102;-75
2024/03/17 08:58:11;;;;;;;3.42;1.60;;;;;;;18.64;43.96;102013.69;4967055;28;20547;-76
2024/03/17 09:00:36;;;;;;;2.92;1.30;;;;;;;18.67;44.03;102016.97;4965501;28;20113;-77
2024/03/17 09:03:02;;;;;;;5.13;1.48;;;;;;;18.65;43.74;102008.28;4966264;28;20042;-73
2024/03/17 09:05:28;;;;;;;3.92;1.60;;;;;;;18.56;43.94;101990.41;4966583;28;20121;-74
2024/03/17 09:07:54;;;;;;;4.47;1.55;;;;;;;18.66;43.93;102006.53;4965522;28;20165;-74
2024/03/17 09:10:19;;;;;;;3.38;1.40;;;;;;;18.63;44.04;101990.88;4967175;28;20038;-77
2024/03/17 09:12:47;;;;;;;3.25;1.58;;;;;;;18.59;43.99;101987.56;4967497;28;20034;-74
2024/03/17 09:15:13;;;;;;;3.28;1.25;;;;;;;18.65;43.88;101995.09;4967289;28;20031;-74
2024/03/17 09:17:39;;;;;;;4.15;1.30;;;;;;;18.66;43.95;101996.78;4967141;28;20456;-74
2024/03/17 09:20:05;;;;;;;4.40;1.40;;;;;;;18.59;43.88;101982.28;4967146;28;20034;-74
2024/03/17 09:22:30;;;;;;;2.20;1.25;;;;;;;18.68;43.73;101994.91;4967423;28;20038;-73
2024/03/17 09:24:56;;;;;;;4.28;1.70;;;;;;;18.67;44.45;101995.84;4967249;28;20039;-73
2024/03/17 09:27:22;;;;;;;3.40;1.33;;;;;;;18.71;43.73;102000.91;4967034;28;20057;-74
2024/03/17 09:29:47;;;;;;;3.50;1.20;;;;;;;18.70;43.76;101992.16;4967519;28;20031;-76
2024/03/17 09:32:17;;;;;;;2.60;1.20;;;;;;;18.60;43.82;101980.50;4967116;28;20045;-74
2024/03/17 09:34:48;;;;;;;2.60;1.25;;;;;;;18.64;43.89;101990.78;4967386;28;20619;-75
2024/03/17 09:37:13;;;;;;;3.40;1.50;;;;;;;18.65;43.83;101986.34;4967485;28;20058;-75
2024/03/17 09:39:38;;;;;;;2.65;1.20;;;;;;;18.53;43.68;101969.47;4967834;28;20027;-75
2024/03/17 09:42:05;;;;;;;3.70;1.30;;;;;;;18.62;43.74;101982.09;4966859;28;20385;-74
2024/03/17 09:44:33;;;;;;;3.63;1.23;;;;;;;18.42;43.83;101938.53;4967424;28;20265;-74
2024/03/17 09:47:00;;;;;;;4.05;1.70;;;;;;;18.60;43.72;101972.59;4967213;28;20031;-75
2024/03/17 09:49:26;;;;;;;4.13;1.40;;;;;;;18.51;43.80;101958.19;4967317;28;20031;-75
2024/03/17 09:51:54;;;;;;;3.78;1.40;;;;;;;18.57;43.61;101973.63;4966768;28;20031;-75
2024/03/17 09:54:20;;;;;;;3.22;1.30;;;;;;;18.60;43.78;101980.50;4967370;28;20443;-75
2024/03/17 09:56:46;;;;;;;4.35;1.42;;;;;;;18.57;43.63;101978.91;4967061;28;20077;-75
2024/03/17 09:59:11;;;;;;;3.03;1.20;;;;;;;18.49;43.71;101963.56;4967212;28;20054;-74
2024/03/17 10:01:37;;;;;;;3.65;1.23;;;;;;;18.56;43.81;101979.84;4966566;28;20051;-75
2024/03/17 10:04:05;;;;;;;3.17;1.40;;;;;;;18.60;43.57;101981.34;4966918;28;20034;-74
2024/03/17 10:06:34;;;;;;;3.25;1.30;;;;;;;18.59;43.71;101984.94;4968913;28;20585;-75
2024/03/17 10:09:15;;;;;;;2.60;1.30;;;;;;;18.47;43.54;101962.84;4970190;28;20482;-75
2024/03/17 10:11:41;;;;;;;4.25;1.48;;;;;;;18.55;43.64;101980.81;4970499;28;20022;-74
2024/03/17 10:14:08;;;;;;;2.58;1.20;;;;;;;18.48;43.95;101968.94;4970652;28;20514;-75
2024/03/17 10:16:35;;;;;;;3.05;1.52;;;;;;;18.57;43.53;101978.06;4970285;28;20031;-73
2024/03/17 10:19:10;;;;;;;3.47;1.48;;;;;;;18.48;43.75;101956.63;4970452;28;20027;-75
2024/03/17 10:21:36;;;;;;;2.72;1.40;;;;;;;18.61;43.43;101984.84;4968885;28;20041;-75
2024/03/17 10:24:12;;;;;;;2.70;1.45;;;;;;;18.49;43.44;101958.28;4968841;28;20469;-75
2024/03/17 10:26:46;;;;;;;3.65;1.30;;;;;;;18.56;43.58;101971.94;4969741;28;20589;-75
2024/03/17 10:29:37;;;;;;;;;;;;;;;18.56;43.89;101966.66;4970254;28;20371;-74
2024/03/17 10:32:12;;;;;;;3.05;1.30;;;;;;;18.50;43.48;101959.16;4966959;28;19910;-75
2024/03/17 10:34:38;;;;;;;3.40;1.42;;;;;;;18.52;43.83;101965.16;4970128;28;20077;-76
2024/03/17 10:37:20;;;;;;;5.03;1.42;;;;;;;18.54;43.81;101965.06;4970138;28;20031;-75
2024/03/17 10:39:49;;;;;;;3.58;1.40;;;;;;;18.55;43.65;101966.75;4969878;28;20039;-74
2024/03/17 10:42:24;;;;;;;2.78;1.08;;;;;;;18.55;43.87;101966.75;4969932;28;20410;-75
2024/03/17 10:44:49;;;;;;;4.65;1.38;;;;;;;18.42;43.69;101941.16;4969932;28;20154;-74
2024/03/17 10:47:21;;;;;;;4.47;1.23;;;;;;;18.55;43.85;101959.69;4969893;28;20117;-74
2024/03/17 10:49:50;;;;;;;3.08;1.40;;;;;;;18.46;43.65;101939.16;4969738;28;20018;-75
2024/03/17 10:52:20;;;;;;;3.28;1.17;;;;;;;18.55;43.76;101954.41;4969392;28;20029;-75
2024/03/17 10:54:50;;;;;;;3.90;1.65;;;;;;;18.42;43.61;101935.91;4969361;28;20146;-74
2024/03/17 10:57:34;;;;;;;2.63;1.10;;;;;;;18.56;43.73;101950.81;4969174;28;20031;-74
2024/03/17 11:00:04;;;;;;;2.88;1.20;;;;;;;18.42;43.87;101933.25;4969547;28;20085;-75
2024/03/17 11:02:32;;;;;;;4.00;1.33;;;;;;;18.54;43.67;101952.72;4968323;28;20283;-74
2024/03/17 11:05:00;;;;;;;4.47;1.27;;;;;;;18.48;43.64;101940.78;4969292;28;20035;-75
2024/03/17 11:07:26;;;;;;;4.13;1.30;;;;;;;18.51;43.67;101949.44;4969211;28;20166;-75
2024/03/17 11:09:54;;;;;;;2.92;1.50;;;;;;;18.42;43.85;101940.31;4969921;28;20027;-75
2024/03/17 11:12:46;;;;;;;3.58;1.80;;;;;;;18.56;43.59;101960.53;4969380;28;20506;-75
2024/03/17 11:15:33;;;;;;;3.60;1.20;;;;;;;18.57;43.77;101963.06;4969188;28;20553;-74
2024/03/17 11:18:08;;;;;;;3.15;1.30;;;;;;;18.56;43.74;101958.72;4968965;28;20054;-74
2024/03/17 11:20:35;;;;;;;4.57;1.50;;;;;;;18.50;43.70;101940.69;4969310;28;20153;-74
2024/03/17 11:23:01;;;;;;;2.25;1.13;;;;;;;18.56;43.90;101953.44;4969408;28;20038;-75